createdAt,value
2023-01-08T00:00:50.111Z,10.20
2023-01-08T00:03:17.040Z,10.20
2023-01-08T00:05:44.010Z,10.20
2023-01-08T00:08:11.254Z,10.20
2023-01-08T00:10:38.677Z,10.20
2023-01-08T00:13:06.567Z,10.20
2023-01-08T00:15:34.541Z,10.20
2023-01-08T00:18:01.467Z,10.20
2023-01-08T00:20:28.850Z,10.30
2023-01-08T00:22:55.550Z,10.30
2023-01-08T00:25:22.196Z,10.30
2023-01-08T00:27:48.920Z,10.30
2023-01-08T00:30:15.695Z,10.30
2023-01-08T00:32:42.401Z,10.30
2023-01-08T00:35:09.535Z,10.30
2023-01-08T00:37:36.762Z,10.30
2023-01-08T00:40:04.212Z,10.40
2023-01-08T00:42:30.911Z,10.30
2023-01-08T00:44:57.604Z,10.30
2023-01-08T00:47:24.483Z,10.40
2023-01-08T00:49:51.259Z,10.40
2023-01-08T00:52:17.926Z,10.40
2023-01-08T00:54:44.545Z,10.40
2023-01-08T00:57:11.157Z,10.40
2023-01-08T00:59:37.808Z,10.40
2023-01-08T01:02:04.600Z,10.50
2023-01-08T01:04:31.442Z,10.50
2023-01-08T01:06:58.151Z,10.50
2023-01-08T01:09:24.914Z,10.60
2023-01-08T01:11:51.593Z,10.60
2023-01-08T01:14:18.346Z,10.50
2023-01-08T01:16:47.563Z,10.60
2023-01-08T01:19:15.749Z,10.50
2023-01-08T01:21:42.649Z,10.60
2023-01-08T01:24:11.580Z,10.70
2023-01-08T01:26:38.474Z,10.60
2023-01-08T01:29:05.788Z,10.60
2023-01-08T01:31:34.112Z,10.60
2023-01-08T01:34:00.842Z,10.60
2023-01-08T01:36:27.534Z,10.70
2023-01-08T01:38:56.729Z,10.70
2023-01-08T01:41:37.908Z,10.60
2023-01-08T01:44:38.546Z,10.60
2023-01-08T01:47:31.013Z,10.60
2023-01-08T01:50:21.779Z,10.60
2023-01-08T01:53:09.116Z,10.60
2023-01-08T01:55:39.202Z,10.60
2023-01-08T01:58:15.569Z,10.60
2023-01-08T02:00:43.553Z,10.70
2023-01-08T02:03:12.475Z,10.70
2023-01-08T02:05:45.765Z,10.80
2023-01-08T02:08:27.335Z,10.70
2023-01-08T02:11:14.583Z,10.80
2023-01-08T02:13:51.651Z,10.70
2023-01-08T02:16:18.360Z,10.70
2023-01-08T02:18:48.786Z,10.70
2023-01-08T02:21:27.095Z,10.70
2023-01-08T02:24:05.498Z,10.70
2023-01-08T02:26:34.136Z,10.70
2023-01-08T02:29:08.589Z,10.70
2023-01-08T02:31:38.268Z,10.70
2023-01-08T02:34:05.191Z,10.80
2023-01-08T02:36:39.654Z,10.70
2023-01-08T02:39:28.765Z,10.70
2023-01-08T02:42:04.733Z,10.70
2023-01-08T02:44:37.396Z,10.70
2023-01-08T02:47:08.109Z,10.70
2023-01-08T02:49:39.184Z,10.70
2023-01-08T02:52:08.498Z,10.70
2023-01-08T02:54:36.377Z,10.70
2023-01-08T02:57:08.352Z,10.70
2023-01-08T02:59:35.322Z,10.70
2023-01-08T03:02:03.442Z,10.70
2023-01-08T03:04:37.897Z,10.70
2023-01-08T03:07:04.711Z,10.70
2023-01-08T03:09:31.852Z,10.70
2023-01-08T03:12:07.188Z,10.70
2023-01-08T03:14:57.829Z,10.70
2023-01-08T03:17:49.953Z,10.70
2023-01-08T03:20:21.605Z,10.70
2023-01-08T03:22:54.261Z,10.70
2023-01-08T03:25:23.873Z,10.70
2023-01-08T03:27:55.618Z,10.70
2023-01-08T03:30:24.665Z,10.70
2023-01-08T03:32:53.065Z,10.70
2023-01-08T03:35:23.961Z,10.60
2023-01-08T03:38:03.445Z,10.60
2023-01-08T03:40:35.647Z,10.60
2023-01-08T03:43:02.532Z,10.60
2023-01-08T03:45:31.613Z,10.60
2023-01-08T03:48:00.378Z,10.60
2023-01-08T03:50:29.329Z,10.50
2023-01-08T03:52:56.090Z,10.50
2023-01-08T03:55:22.792Z,10.50
2023-01-08T03:57:49.465Z,10.60
2023-01-08T04:00:17.147Z,10.60
2023-01-08T04:02:43.985Z,10.60
2023-01-08T04:05:11.600Z,10.60
2023-01-08T04:07:38.324Z,10.60
2023-01-08T04:10:05.413Z,10.60
2023-01-08T04:12:32.116Z,10.60
2023-01-08T04:14:58.817Z,10.60
2023-01-08T04:17:25.524Z,10.60
2023-01-08T04:19:52.431Z,10.60
2023-01-08T04:22:19.126Z,10.50
2023-01-08T04:24:45.894Z,10.60
2023-01-08T04:27:12.657Z,10.50
2023-01-08T04:29:39.385Z,10.50
2023-01-08T04:32:06.062Z,10.50
2023-01-08T04:34:32.793Z,10.50
2023-01-08T04:36:59.729Z,10.50
2023-01-08T04:39:26.503Z,10.50
2023-01-08T04:41:53.169Z,10.50
2023-01-08T04:44:19.845Z,10.50
2023-01-08T04:46:46.600Z,10.50
2023-01-08T04:49:13.975Z,10.40
2023-01-08T04:51:40.663Z,10.40
2023-01-08T04:54:07.389Z,10.40
2023-01-08T04:56:34.017Z,10.40
2023-01-08T04:59:00.753Z,10.40
2023-01-08T05:01:28.719Z,10.40
2023-01-08T05:03:57.536Z,10.40
2023-01-08T05:06:24.998Z,10.40
2023-01-08T05:08:51.747Z,10.40
2023-01-08T05:11:18.366Z,10.40
2023-01-08T05:13:51.227Z,10.40
2023-01-08T05:16:18.555Z,10.40
2023-01-08T05:18:45.938Z,10.30
2023-01-08T05:21:13.800Z,10.30
2023-01-08T05:23:44.066Z,10.30
2023-01-08T05:26:10.826Z,10.30
2023-01-08T05:28:37.499Z,10.30
2023-01-08T05:31:04.380Z,10.30
2023-01-08T05:33:31.145Z,10.40
2023-01-08T05:35:57.939Z,10.30
2023-01-08T05:38:24.824Z,10.30
2023-01-08T05:40:54.243Z,10.40
2023-01-08T05:43:20.935Z,10.40
2023-01-08T05:45:48.148Z,10.40
2023-01-08T05:48:14.917Z,10.30
2023-01-08T05:50:41.659Z,10.30
2023-01-08T05:53:09.023Z,10.30
2023-01-08T05:55:36.129Z,10.30
2023-01-08T05:58:06.327Z,10.30
2023-01-08T06:00:34.007Z,10.30
2023-01-08T06:03:00.833Z,10.30
2023-01-08T06:05:27.750Z,10.30
2023-01-08T06:07:54.454Z,10.30
2023-01-08T06:10:21.087Z,10.30
2023-01-08T06:12:47.777Z,10.20
2023-01-08T06:15:14.545Z,10.20
2023-01-08T06:17:41.966Z,10.20
2023-01-08T06:20:09.554Z,10.10
2023-01-08T06:22:36.276Z,10.10
2023-01-08T06:25:03.810Z,10.10
2023-01-08T06:27:30.820Z,10.00
2023-01-08T06:29:57.513Z,10.00
2023-01-08T06:32:24.497Z,9.90
2023-01-08T06:34:51.307Z,9.90
2023-01-08T06:37:23.198Z,9.90
2023-01-08T06:39:55.838Z,10.00
2023-01-08T06:42:27.222Z,9.90
2023-01-08T06:44:53.941Z,10.00
2023-01-08T06:47:20.592Z,9.90
2023-01-08T06:49:47.275Z,9.90
2023-01-08T06:52:13.910Z,9.90
2023-01-08T06:54:40.869Z,9.80
2023-01-08T06:57:07.588Z,9.80
2023-01-08T06:59:34.219Z,9.80
2023-01-08T07:02:00.987Z,9.80
2023-01-08T07:04:28.830Z,9.80
2023-01-08T07:06:55.486Z,9.80
2023-01-08T07:09:22.168Z,9.70
2023-01-08T07:11:48.844Z,9.70
2023-01-08T07:14:15.699Z,9.70
2023-01-08T07:16:42.382Z,9.80
2023-01-08T07:19:09.353Z,9.70
2023-01-08T07:21:36.092Z,9.70
2023-01-08T07:24:02.783Z,9.70
2023-01-08T07:26:29.461Z,9.80
2023-01-08T07:28:56.089Z,9.80
2023-01-08T07:31:22.888Z,9.70
2023-01-08T07:33:49.668Z,9.70
2023-01-08T07:36:17.771Z,9.70
2023-01-08T07:38:44.778Z,9.70
2023-01-08T07:41:13.247Z,9.80
2023-01-08T07:43:40.001Z,9.80
2023-01-08T07:46:06.769Z,9.80
2023-01-08T07:48:33.503Z,9.80
2023-01-08T07:51:07.698Z,9.80
2023-01-08T07:53:35.898Z,9.80
2023-01-08T07:56:04.658Z,9.80
2023-01-08T07:58:31.448Z,9.80
2023-01-08T08:00:59.342Z,9.80
2023-01-08T08:03:26.333Z,9.80
2023-01-08T08:05:53.525Z,9.80
2023-01-08T08:08:20.389Z,9.80
2023-01-08T08:10:47.508Z,9.80
2023-01-08T08:13:14.155Z,9.80
2023-01-08T08:15:41.334Z,9.80
2023-01-08T08:18:08.058Z,9.80
2023-01-08T08:20:34.783Z,9.80
2023-01-08T08:23:06.374Z,9.80
2023-01-08T08:25:33.267Z,9.70
2023-01-08T08:28:01.454Z,9.90
2023-01-08T08:30:29.557Z,9.80
2023-01-08T08:32:58.299Z,9.80
2023-01-08T08:35:24.962Z,9.80
2023-01-08T08:37:51.589Z,9.80
2023-01-08T08:40:18.229Z,9.80
2023-01-08T08:42:44.887Z,9.80
2023-01-08T08:45:11.952Z,9.80
2023-01-08T08:47:38.794Z,9.80
2023-01-08T08:50:06.614Z,9.80
2023-01-08T08:52:34.411Z,9.90
2023-01-08T08:55:01.210Z,9.90
2023-01-08T08:57:27.883Z,9.90
2023-01-08T08:59:54.551Z,10.00
2023-01-08T09:02:21.406Z,10.10
2023-01-08T09:04:48.167Z,10.10
2023-01-08T09:07:15.016Z,10.10
2023-01-08T09:09:41.716Z,10.20
2023-01-08T09:12:09.558Z,10.20
2023-01-08T09:14:36.332Z,10.30
2023-01-08T09:17:03.064Z,10.30
2023-01-08T09:19:29.724Z,10.30
2023-01-08T09:21:56.385Z,10.20
2023-01-08T09:24:23.050Z,10.00
2023-01-08T09:26:49.752Z,10.00
2023-01-08T09:29:16.379Z,9.80
2023-01-08T09:31:43.147Z,9.50
2023-01-08T09:34:09.930Z,8.90
2023-01-08T09:36:36.584Z,8.60
2023-01-08T09:39:03.638Z,8.40
2023-01-08T09:41:37.683Z,8.30
2023-01-08T09:44:06.876Z,8.30
2023-01-08T09:46:36.259Z,8.30
2023-01-08T09:49:06.553Z,8.30
2023-01-08T10:01:43.893Z,8.40
2023-01-08T10:04:19.334Z,8.50
2023-01-08T10:07:21.226Z,8.50
2023-01-08T10:09:55.752Z,8.50
2023-01-08T10:12:29.871Z,8.60
2023-01-08T10:15:04.710Z,8.70
2023-01-08T10:18:15.477Z,8.70
2023-01-08T10:20:54.591Z,8.80
2023-01-08T10:24:02.287Z,8.90
2023-01-08T10:26:34.783Z,9.00
2023-01-08T10:29:10.140Z,9.10
2023-01-08T10:31:58.038Z,9.40
2023-01-08T10:34:47.359Z,9.80
2023-01-08T10:37:43.399Z,10.20
2023-01-08T10:40:34.193Z,10.30
2023-01-08T10:44:50.681Z,10.40
2023-01-08T10:48:18.486Z,10.50
2023-01-08T10:50:48.597Z,10.70
2023-01-08T10:53:31.392Z,10.90
2023-01-08T10:56:02.267Z,11.10
2023-01-08T10:58:54.450Z,11.00
2023-01-08T11:01:47.268Z,10.70
2023-01-08T11:04:49.983Z,10.40
2023-01-08T11:07:21.954Z,10.50
2023-01-08T11:09:59.469Z,10.50
2023-01-08T11:12:43.907Z,10.50
2023-01-08T11:15:40.215Z,10.40
2023-01-08T11:22:44.675Z,10.60
2023-01-08T11:25:41.153Z,10.90
2023-01-08T11:28:23.866Z,10.80
2023-01-08T11:31:08.365Z,10.90
2023-01-08T11:33:45.550Z,11.10
2023-01-08T11:36:36.337Z,11.00
2023-01-08T11:39:03.282Z,11.10
2023-01-08T11:45:39.539Z,11.10
2023-01-08T11:48:37.444Z,11.00
2023-01-08T11:51:45.755Z,10.90
2023-01-08T11:54:50.342Z,11.00
2023-01-08T11:57:48.594Z,11.10
2023-01-08T12:00:58.639Z,11.20
2023-01-08T12:04:15.054Z,11.30
2023-01-08T12:06:56.975Z,11.40
2023-01-08T12:09:38.717Z,11.60
2023-01-08T12:12:58.945Z,11.70
2023-01-08T12:15:39.742Z,11.90
2023-01-08T12:18:25.502Z,11.90
2023-01-08T12:21:25.738Z,11.90
2023-01-08T12:24:19.379Z,11.80
2023-01-08T12:26:54.194Z,11.90
2023-01-08T12:29:29.703Z,11.80
2023-01-08T12:32:23.237Z,11.70
2023-01-08T12:35:00.313Z,11.70
2023-01-08T12:37:29.379Z,11.70
2023-01-08T12:40:15.576Z,11.80
2023-01-08T12:42:47.165Z,12.00
2023-01-08T12:45:28.419Z,11.90
2023-01-08T12:48:01.261Z,12.00
2023-01-08T12:50:38.096Z,12.30
2023-01-08T12:53:17.994Z,12.10
2023-01-08T12:56:02.391Z,11.80
2023-01-08T12:58:43.555Z,11.50
2023-01-08T13:01:23.566Z,11.90
2023-01-08T13:03:51.012Z,12.20
2023-01-08T13:06:19.820Z,12.30
2023-01-08T13:08:52.817Z,12.40
2023-01-08T13:11:32.372Z,13.00
2023-01-08T13:14:06.170Z,13.50
2023-01-08T13:16:39.545Z,14.30
2023-01-08T13:19:21.769Z,14.30
2023-01-08T13:21:53.320Z,13.70
2023-01-08T13:24:41.096Z,14.30
2023-01-08T13:27:17.215Z,13.40
2023-01-08T13:29:53.412Z,13.60
2023-01-08T13:32:42.140Z,13.30
2023-01-08T13:35:14.920Z,12.40
2023-01-08T13:38:10.389Z,12.00
2023-01-08T13:40:43.086Z,11.80
2023-01-08T13:43:40.579Z,11.70
2023-01-08T13:46:19.029Z,11.50
2023-01-08T13:49:10.594Z,11.50
2023-01-08T13:51:43.677Z,11.70
2023-01-08T13:54:14.111Z,11.50
2023-01-08T13:56:42.291Z,11.20
2023-01-08T13:59:48.881Z,11.20
2023-01-08T14:02:30.186Z,11.00
2023-01-08T14:06:03.871Z,10.90
2023-01-08T14:12:34.486Z,10.80
2023-01-08T14:15:04.395Z,10.80
2023-01-08T14:18:40.943Z,10.80
2023-01-08T14:21:13.676Z,10.80
2023-01-08T14:24:25.997Z,10.70
2023-01-08T14:27:03.092Z,10.70
2023-01-08T14:33:57.001Z,11.40
2023-01-08T14:36:31.936Z,12.00
2023-01-08T14:39:13.112Z,12.30
2023-01-08T14:42:00.545Z,12.30
2023-01-08T14:44:37.046Z,12.20
2023-01-08T14:47:13.147Z,11.80
2023-01-08T14:49:44.478Z,11.30
2023-01-08T14:52:15.002Z,11.00
2023-01-08T14:54:45.557Z,10.90
2023-01-08T14:57:12.893Z,10.80
2023-01-08T14:59:39.849Z,10.70
2023-01-08T15:02:14.604Z,10.60
2023-01-08T15:04:41.376Z,10.60
2023-01-08T15:07:23.416Z,10.70
2023-01-08T15:09:58.458Z,10.70
2023-01-08T15:12:27.630Z,10.70
2023-01-08T15:14:55.292Z,10.70
2023-01-08T15:17:26.176Z,10.70
2023-01-08T15:19:57.738Z,10.70
2023-01-08T15:23:22.440Z,10.80
2023-01-08T15:25:30.636Z,10.70
2023-01-08T15:28:19.613Z,10.20
2023-01-08T15:31:35.800Z,9.80
2023-01-08T15:34:02.903Z,9.40
2023-01-08T15:36:29.814Z,8.80
2023-01-08T15:38:56.565Z,8.60
2023-01-08T15:41:42.836Z,8.40
2023-01-08T15:44:12.933Z,8.40
2023-01-08T15:46:39.814Z,8.30
2023-01-08T15:49:06.761Z,8.30
2023-01-08T15:51:34.714Z,8.30
2023-01-08T15:54:02.359Z,8.30
2023-01-08T15:56:29.124Z,8.30
2023-01-08T15:58:55.877Z,8.30
2023-01-08T16:01:22.676Z,8.30
2023-01-08T16:03:49.865Z,8.30
2023-01-08T16:06:16.632Z,8.30
2023-01-08T16:08:46.034Z,8.20
2023-01-08T16:11:13.909Z,8.20
2023-01-08T16:13:40.732Z,8.00
2023-01-08T16:16:13.305Z,7.90
2023-01-08T16:18:40.506Z,7.80
2023-01-08T16:21:09.365Z,7.70
2023-01-08T16:23:37.669Z,7.70
2023-01-08T16:26:09.821Z,7.70
2023-01-08T16:28:40.913Z,7.70
2023-01-08T16:31:09.876Z,7.80
2023-01-08T16:33:37.368Z,7.90
2023-01-08T16:36:07.660Z,8.00
2023-01-08T16:38:37.650Z,8.00
2023-01-08T16:41:05.864Z,8.10
2023-01-08T16:43:39.608Z,8.30
2023-01-08T16:46:16.174Z,8.40
2023-01-08T16:48:43.196Z,8.50
2023-01-08T16:51:11.047Z,8.50
2023-01-08T16:53:37.859Z,8.60
2023-01-08T16:56:05.548Z,8.60
2023-01-08T16:58:34.973Z,8.50
2023-01-08T17:01:06.941Z,8.50
2023-01-08T17:03:33.897Z,8.50
2023-01-08T17:06:08.086Z,8.50
2023-01-08T17:08:39.756Z,8.50
2023-01-08T17:11:08.188Z,8.40
2023-01-08T17:13:34.840Z,8.40
2023-01-08T17:16:06.540Z,8.30
2023-01-08T17:18:33.456Z,8.30
2023-01-08T17:21:00.137Z,8.20
2023-01-08T17:23:28.717Z,8.20
2023-01-08T17:25:57.429Z,8.20
2023-01-08T17:28:25.213Z,8.20
2023-01-08T17:31:02.428Z,8.30
2023-01-08T17:33:29.274Z,8.40
2023-01-08T17:36:01.005Z,8.40
2023-01-08T17:38:28.734Z,8.40
2023-01-08T17:41:00.119Z,8.40
2023-01-08T17:43:27.204Z,8.40
2023-01-08T17:45:56.340Z,8.40
2023-01-08T17:48:23.218Z,8.40
2023-01-08T17:50:50.005Z,8.40
2023-01-08T17:53:16.786Z,8.40
2023-01-08T17:55:43.414Z,8.40
2023-01-08T17:58:21.318Z,8.40
2023-01-08T18:00:48.247Z,8.60
2023-01-08T18:03:17.694Z,8.30
2023-01-08T18:05:44.770Z,8.20
2023-01-08T18:08:11.528Z,8.10
2023-01-08T18:10:38.629Z,8.10
2023-01-08T18:13:05.355Z,8.00
2023-01-08T18:15:33.874Z,7.90
2023-01-08T18:18:03.245Z,7.90
2023-01-08T18:20:29.952Z,7.80
2023-01-08T18:22:56.700Z,7.80
2023-01-08T18:25:23.351Z,7.80
2023-01-08T18:27:50.384Z,7.80
2023-01-08T18:30:17.280Z,7.90
2023-01-08T18:32:43.963Z,8.00
2023-01-08T18:35:12.783Z,8.10
2023-01-08T18:37:39.450Z,8.20
2023-01-08T18:40:06.578Z,8.10
2023-01-08T18:43:13.671Z,8.10
2023-01-08T18:45:44.948Z,8.20
2023-01-08T18:48:15.340Z,8.30
2023-01-08T18:50:42.490Z,8.40
2023-01-08T18:53:10.139Z,8.40
2023-01-08T18:55:37.501Z,8.20
2023-01-08T18:58:04.620Z,8.30
2023-01-08T19:00:31.612Z,8.40
2023-01-08T19:02:58.720Z,8.40
2023-01-08T19:05:25.732Z,8.50
2023-01-08T19:07:52.402Z,8.50
2023-01-08T19:10:19.806Z,8.60
2023-01-08T19:12:46.631Z,8.60
2023-01-08T19:15:13.473Z,8.70
2023-01-08T19:17:40.437Z,8.70
2023-01-08T19:20:07.975Z,8.80
2023-01-08T19:22:34.755Z,8.80
2023-01-08T19:25:01.572Z,8.70
2023-01-08T19:27:28.374Z,8.70
2023-01-08T19:29:55.090Z,8.70
2023-01-08T19:32:21.754Z,8.60
2023-01-08T19:34:48.612Z,8.50
2023-01-08T19:37:15.279Z,8.50
2023-01-08T19:39:42.118Z,8.40
2023-01-08T19:42:29.195Z,8.40
2023-01-08T19:44:56.701Z,8.30
2023-01-08T19:47:32.450Z,8.30
2023-01-08T19:49:59.341Z,8.30
2023-01-08T19:52:26.002Z,8.30
2023-01-08T19:55:04.131Z,8.40
2023-01-08T19:57:30.961Z,8.40
2023-01-08T20:00:00.064Z,8.30
2023-01-08T20:02:27.038Z,8.30
2023-01-08T20:04:53.824Z,8.20
2023-01-08T20:07:20.488Z,8.20
2023-01-08T20:09:47.129Z,8.30
2023-01-08T20:12:14.822Z,8.20
2023-01-08T20:14:41.598Z,8.20
2023-01-08T20:17:08.283Z,8.10
2023-01-08T20:19:36.569Z,8.10
2023-01-08T20:22:03.288Z,8.00
2023-01-08T20:24:30.353Z,7.90
2023-01-08T20:26:57.057Z,7.90
2023-01-08T20:29:23.773Z,7.80
2023-01-08T20:31:56.715Z,7.80
2023-01-08T20:34:24.174Z,7.70
2023-01-08T20:36:50.904Z,7.70
2023-01-08T20:39:18.289Z,7.70
2023-01-08T20:41:50.410Z,7.50
2023-01-08T20:44:31.008Z,7.50
2023-01-08T20:46:57.660Z,7.50
2023-01-08T20:49:26.515Z,7.50
2023-01-08T20:51:59.251Z,7.50
2023-01-08T20:54:28.970Z,7.50
2023-01-08T20:57:02.406Z,7.40
2023-01-08T20:59:29.439Z,7.40
2023-01-08T21:01:57.071Z,7.40
2023-01-08T21:04:24.093Z,7.40
2023-01-08T21:06:50.914Z,7.40
2023-01-08T21:09:18.092Z,7.40
2023-01-08T21:11:44.969Z,7.50
2023-01-08T21:14:11.717Z,7.50
2023-01-08T21:16:40.401Z,7.60
2023-01-08T21:19:10.090Z,7.60
2023-01-08T21:21:40.268Z,7.70
2023-01-08T21:24:09.947Z,7.70
2023-01-08T21:26:37.825Z,7.60
2023-01-08T21:29:08.937Z,7.60
2023-01-08T21:31:36.704Z,7.60
2023-01-08T21:34:04.533Z,7.60
2023-01-08T21:36:32.073Z,7.50
2023-01-08T21:39:00.369Z,7.60
2023-01-08T21:41:46.233Z,7.60
2023-01-08T21:44:34.894Z,7.60
2023-01-08T21:47:02.833Z,7.60
2023-01-08T21:49:30.115Z,7.60
2023-01-08T21:52:15.344Z,7.60
2023-01-08T21:54:42.270Z,7.60
2023-01-08T21:57:09.930Z,7.50
2023-01-08T21:59:37.732Z,7.60
2023-01-08T22:02:05.858Z,7.50
2023-01-08T22:04:33.059Z,7.40
2023-01-08T22:06:59.744Z,7.40
2023-01-08T22:09:26.407Z,7.30
2023-01-08T22:11:55.096Z,7.20
2023-01-08T22:14:21.964Z,7.20
2023-01-08T22:16:48.663Z,7.10
2023-01-08T22:19:15.409Z,7.10
2023-01-08T22:21:42.204Z,7.10
2023-01-08T22:24:08.868Z,7.00
2023-01-08T22:26:35.611Z,7.20
2023-01-08T22:29:03.635Z,7.40
2023-01-08T22:31:30.358Z,7.50
2023-01-08T22:33:57.693Z,7.50
2023-01-08T22:36:24.943Z,7.70
2023-01-08T22:38:52.231Z,7.80
2023-01-08T22:41:21.600Z,7.90
2023-01-08T22:43:48.555Z,8.00
2023-01-08T22:46:16.463Z,8.00
2023-01-08T22:48:43.890Z,8.10
2023-01-08T22:51:11.223Z,8.20
2023-01-08T22:53:38.206Z,8.10
2023-01-08T22:56:12.316Z,8.20
2023-01-08T22:58:45.188Z,8.20
2023-01-08T23:01:21.161Z,8.20
2023-01-08T23:03:52.404Z,8.20
2023-01-08T23:06:20.834Z,8.40
2023-01-08T23:08:47.647Z,8.40
2023-01-08T23:11:18.089Z,8.40
2023-01-08T23:13:45.299Z,8.50
2023-01-08T23:16:14.733Z,8.50
2023-01-08T23:18:42.016Z,8.50
2023-01-08T23:21:20.299Z,8.50
2023-01-08T23:23:47.366Z,8.40
2023-01-08T23:26:18.531Z,8.40
2023-01-08T23:28:46.631Z,8.40
2023-01-08T23:31:16.857Z,8.40
2023-01-08T23:33:43.632Z,8.40
2023-01-08T23:36:10.639Z,8.40
2023-01-08T23:38:37.282Z,8.40
2023-01-08T23:41:06.562Z,8.50
2023-01-08T23:43:33.336Z,8.50
2023-01-08T23:46:06.532Z,8.40
2023-01-08T23:48:33.667Z,8.40
2023-01-08T23:51:00.364Z,8.40
2023-01-08T23:53:27.005Z,8.50
2023-01-08T23:55:53.719Z,8.60
2023-01-08T23:58:20.743Z,8.60
